Hauptseite
METAR-TAF:

METAR-TAF

Flughäfen :

Izmir, Türkei

Breite: 38-30N, Länge: 027-01E, Höhe: 5 m

METAR: fehlend

Zeit: 13:31 (10:31 UTC)

Prognose

Neuester Wetterbericht von vor 2 Stunden und 51 Minuten, um 07:40 UTC
Gültige Prognose vom 09 um 09 UTC bis 09 um 18 UTC
Wind 9 kt aus Nord/Nordwest
Sichtweite 10 km oder mehr
Aufgelockert bewölkt in der Höhe von 3500 ft
Durchbrochene Bewölkung in der Höhe von 10000 ft
Wahrscheinlichkeit 30% :
Zeitweise
vom 09 um 14 UTC bis 09 um 18 UTC
Leicht bewölkt in der Höhe von 2000 ft, Kumulonimbus.
Durchbrochene Bewölkung in der Höhe von 3000 ft
Gewitter, Leichtregen

TAF: LTBL 090740Z 0909/0918 33009KT 9999 SCT035 BKN100 PROB30 TEMPO 0914/0918 -TSRA FEW020CB BKN030

Wetterbeobachtungen und Prognosen von mehr als 4000 Flughäfen (METAR und TAF Bericht).

Die verfügbaren Stationen werden durch gelbe und rote Markierungen auf der Karte dargestellt.

Führen Sie die Maus auf sie, um den Namen der Station zu sehen.

Darauf klicken, um die Beobachtung von Wetterbeobachtungen und Prognosen zu sehen.

Um die Karte zu ändern : klicken Sie auf den grünen Tasten mit einem schwarzen Kreuz Zum Vergrößern, auf den grünen Button mit einem Gedankenstrich zu verkleinern, oder auf die grünen Pfeile für benachbarte Karten.


METAR-TAF: